createdAt,value
2019-04-23T00:02:18.523Z,12.90
2019-04-23T00:04:47.930Z,12.90
2019-04-23T00:07:39.376Z,12.90
2019-04-23T00:09:59.307Z,12.90
2019-04-23T00:12:40.501Z,12.90
2019-04-23T00:15:04.522Z,12.80
2019-04-23T00:17:34.655Z,12.80
2019-04-23T00:20:03.738Z,12.70
2019-04-23T00:22:43.527Z,12.70
2019-04-23T00:30:36.639Z,12.70
2019-04-23T00:33:05.374Z,12.70
2019-04-23T00:35:33.523Z,12.70
2019-04-23T00:38:05.922Z,12.70
2019-04-23T00:43:08.638Z,12.60
2019-04-23T00:45:42.949Z,12.60
2019-04-23T00:48:15.135Z,12.50
2019-04-23T00:50:44.771Z,12.60
2019-04-23T00:53:12.087Z,12.60
2019-04-23T00:55:44.677Z,12.60
2019-04-23T01:00:45.986Z,12.60
2019-04-23T01:05:58.877Z,12.50
2019-04-23T01:08:18.838Z,12.50
2019-04-23T01:13:39.349Z,12.50
2019-04-23T01:16:18.112Z,12.60
2019-04-23T01:21:05.484Z,12.60
2019-04-23T01:23:58.866Z,12.50
2019-04-23T01:26:50.365Z,12.50
2019-04-23T01:29:21.397Z,12.60
2019-04-23T01:31:52.034Z,12.50
2019-04-23T01:34:28.033Z,12.60
2019-04-23T01:36:55.945Z,12.60
2019-04-23T01:39:23.276Z,12.60
2019-04-23T01:42:04.127Z,12.50
2019-04-23T01:44:36.973Z,12.60
2019-04-23T01:47:05.925Z,12.50
2019-04-23T01:49:37.574Z,12.50
2019-04-23T01:52:01.737Z,12.50
2019-04-23T01:54:30.835Z,12.50
2019-04-23T01:57:04.070Z,12.40
2019-04-23T01:59:31.702Z,12.40
2019-04-23T02:02:08.673Z,12.40
2019-04-23T02:04:34.862Z,12.40
2019-04-23T02:07:06.448Z,12.40
2019-04-23T02:09:41.768Z,12.40
2019-04-23T02:12:14.015Z,12.40
2019-04-23T02:14:48.138Z,12.40
2019-04-23T02:17:29.839Z,12.30
2019-04-23T02:19:46.383Z,12.40
2019-04-23T02:22:38.937Z,12.30
2019-04-23T02:25:34.559Z,12.30
2019-04-23T02:28:09.117Z,12.20
2019-04-23T02:33:12.406Z,12.20
2019-04-23T02:38:27.246Z,12.20
2019-04-23T02:40:49.551Z,12.20
2019-04-23T02:43:13.037Z,12.20
2019-04-23T02:45:39.807Z,12.20
2019-04-23T02:48:19.419Z,12.20
2019-04-23T02:53:14.731Z,12.10
2019-04-23T02:58:18.695Z,12.00
2019-04-23T03:00:55.650Z,12.00
2019-04-23T03:03:38.930Z,12.00
2019-04-23T03:08:19.503Z,12.00
2019-04-23T03:13:32.474Z,12.00
2019-04-23T03:19:09.876Z,11.90
2019-04-23T03:21:44.602Z,11.90
2019-04-23T03:39:40.197Z,11.80
2019-04-23T03:42:01.995Z,11.70
2019-04-23T03:47:01.681Z,11.70
2019-04-23T03:49:48.766Z,11.80
2019-04-23T03:52:01.188Z,11.80
2019-04-23T03:54:45.563Z,11.70
2019-04-23T03:57:13.936Z,11.60
2019-04-23T03:59:47.105Z,11.70
2019-04-23T04:02:20.117Z,11.60
2019-04-23T04:04:39.105Z,11.60
2019-04-23T04:12:39.208Z,11.60
2019-04-23T04:22:44.070Z,11.50
2019-04-23T04:24:48.145Z,11.50
2019-04-23T04:32:11.646Z,11.60
2019-04-23T04:40:07.511Z,11.70
2019-04-23T04:42:18.711Z,11.80
2019-04-23T04:45:14.384Z,11.80
2019-04-23T04:52:47.039Z,12.10
2019-04-23T04:54:55.912Z,12.30
2019-04-23T05:00:13.192Z,12.30
2019-04-23T05:03:01.162Z,12.30
2019-04-23T05:05:20.627Z,12.40
2019-04-23T05:07:37.777Z,12.60
2019-04-23T05:10:29.585Z,12.60
2019-04-23T05:12:38.631Z,12.60
2019-04-23T05:18:14.088Z,12.90
2019-04-23T05:20:28.490Z,13.10
2019-04-23T05:25:26.116Z,13.30
2019-04-23T05:28:02.729Z,13.40
2019-04-23T05:30:33.175Z,13.40
2019-04-23T05:33:04.319Z,13.40
2019-04-23T05:35:56.098Z,13.60
2019-04-23T05:38:18.566Z,13.50
2019-04-23T05:40:45.037Z,13.70
2019-04-23T05:43:08.119Z,14.00
2019-04-23T05:45:38.212Z,14.00
2019-04-23T05:48:13.349Z,14.00
2019-04-23T05:53:11.417Z,14.10
2019-04-23T05:55:45.932Z,14.00
2019-04-23T05:58:17.041Z,14.40
2019-04-23T06:05:57.888Z,14.20
2019-04-23T06:11:05.607Z,14.60
2019-04-23T06:15:59.608Z,15.30
2019-04-23T06:18:44.373Z,15.30
2019-04-23T06:21:05.639Z,15.40
2019-04-23T06:23:38.577Z,15.60
2019-04-23T06:26:17.944Z,15.60
2019-04-23T06:28:31.649Z,15.60
2019-04-23T06:31:09.751Z,15.70
2019-04-23T06:33:54.533Z,16.20
2019-04-23T06:36:25.555Z,16.30
2019-04-23T06:38:46.080Z,16.70
2019-04-23T06:44:00.512Z,16.40
2019-04-23T06:46:35.966Z,16.40
2019-04-23T06:48:57.437Z,16.20
2019-04-23T06:51:37.214Z,16.20
2019-04-23T06:53:58.282Z,16.80
2019-04-23T06:56:40.116Z,17.30
2019-04-23T06:59:09.697Z,17.80
2019-04-23T07:01:37.829Z,17.60
2019-04-23T07:04:05.582Z,17.40
2019-04-23T07:06:38.501Z,17.30
2019-04-23T07:09:12.407Z,17.90
2019-04-23T07:14:26.137Z,18.30
2019-04-23T07:16:41.387Z,18.80
2019-04-23T07:19:16.547Z,19.40
2019-04-23T07:21:33.581Z,18.80
2019-04-23T07:24:08.561Z,18.80
2019-04-23T07:29:15.695Z,19.70
2019-04-23T07:31:48.367Z,19.90
2019-04-23T07:34:13.748Z,20.60
2019-04-23T07:36:47.416Z,20.60
2019-04-23T07:39:27.430Z,19.80
2019-04-23T07:48:01.511Z,21.00
2019-04-23T07:50:33.515Z,21.50
2019-04-23T07:55:42.635Z,22.10
2019-04-23T07:58:06.530Z,22.20
2019-04-23T08:00:35.038Z,22.10
2019-04-23T08:03:14.419Z,22.30
2019-04-23T08:05:36.082Z,23.10
2019-04-23T08:10:42.049Z,24.00
2019-04-23T08:15:44.596Z,22.70
2019-04-23T08:18:16.213Z,22.60
2019-04-23T08:20:42.572Z,22.80
2019-04-23T08:23:28.310Z,23.20
2019-04-23T08:26:22.551Z,22.90
2019-04-23T08:29:01.120Z,22.50
2019-04-23T08:31:15.132Z,23.40
2019-04-23T08:33:49.713Z,23.50
2019-04-23T08:36:20.149Z,22.90
2019-04-23T08:38:50.767Z,23.10
2019-04-23T08:41:28.501Z,24.00
2019-04-23T08:43:59.489Z,23.70
2019-04-23T08:46:56.995Z,24.50
2019-04-23T08:49:25.425Z,24.20
2019-04-23T08:51:56.008Z,24.90
2019-04-23T08:54:41.660Z,24.80
2019-04-23T08:56:54.787Z,25.70
2019-04-23T08:59:36.143Z,25.60
2019-04-23T09:02:07.653Z,25.30
2019-04-23T09:04:51.875Z,25.60
2019-04-23T09:09:51.020Z,24.60
2019-04-23T09:14:53.871Z,25.00
2019-04-23T09:17:24.758Z,24.80
2019-04-23T09:20:07.142Z,25.20
2019-04-23T09:22:31.170Z,26.70
2019-04-23T09:24:57.189Z,25.30
2019-04-23T09:27:26.309Z,26.50
2019-04-23T09:30:00.974Z,25.80
2019-04-23T09:35:24.052Z,26.90
2019-04-23T09:38:23.796Z,28.20
2019-04-23T09:41:22.128Z,26.00
2019-04-23T09:47:16.041Z,24.70
2019-04-23T09:49:44.358Z,26.20
2019-04-23T09:52:14.647Z,27.10
2019-04-23T09:54:57.766Z,26.50
2019-04-23T09:57:16.005Z,25.90
2019-04-23T09:59:49.770Z,26.40
2019-04-23T10:02:20.121Z,24.90
2019-04-23T10:04:39.840Z,24.90
2019-04-23T10:07:09.097Z,25.10
2019-04-23T10:09:27.942Z,25.70
2019-04-23T10:11:58.627Z,25.40
2019-04-23T10:14:28.446Z,24.90
2019-04-23T10:16:58.081Z,25.70
2019-04-23T10:19:28.744Z,25.10
2019-04-23T10:21:59.894Z,25.50
2019-04-23T10:24:30.804Z,26.10
2019-04-23T10:27:01.855Z,27.00
2019-04-23T10:29:36.237Z,27.00
2019-04-23T10:32:07.507Z,26.80
2019-04-23T10:34:47.822Z,27.00
2019-04-23T10:37:09.350Z,27.20
2019-04-23T10:39:42.740Z,26.50
2019-04-23T10:42:12.158Z,26.10
2019-04-23T10:45:19.344Z,26.20
2019-04-23T10:48:41.834Z,26.60
2019-04-23T10:51:25.367Z,26.20
2019-04-23T10:59:03.204Z,26.60
2019-04-23T11:01:45.024Z,25.10
2019-04-23T11:04:33.729Z,24.60
2019-04-23T11:06:45.455Z,24.70
2019-04-23T11:09:27.867Z,25.60
2019-04-23T11:11:55.990Z,25.20
2019-04-23T11:14:25.726Z,25.40
2019-04-23T11:16:58.198Z,25.90
2019-04-23T11:19:31.974Z,25.90
2019-04-23T11:22:13.221Z,25.80
2019-04-23T11:24:36.228Z,25.70
2019-04-23T11:27:00.653Z,26.00
2019-04-23T11:29:34.408Z,27.10
2019-04-23T11:32:13.677Z,25.70
2019-04-23T11:34:57.354Z,25.50
2019-04-23T11:37:06.170Z,25.70
2019-04-23T11:39:39.674Z,25.60
2019-04-23T11:42:14.441Z,25.40
2019-04-23T11:44:41.716Z,25.70
2019-04-23T11:47:14.288Z,26.30
2019-04-23T11:52:29.099Z,27.00
2019-04-23T11:54:35.587Z,25.80
2019-04-23T11:59:47.200Z,24.70
2019-04-23T12:02:40.361Z,24.80
2019-04-23T12:05:26.581Z,24.10
2019-04-23T12:08:07.865Z,23.00
2019-04-23T12:11:26.858Z,23.70
2019-04-23T12:16:00.742Z,23.10
2019-04-23T12:19:01.891Z,23.30
2019-04-23T12:21:15.157Z,23.10
2019-04-23T12:26:23.739Z,22.70
2019-04-23T12:31:16.175Z,23.40
2019-04-23T12:33:55.355Z,23.30
2019-04-23T12:36:45.493Z,23.50
2019-04-23T12:39:21.171Z,23.80
2019-04-23T12:41:52.774Z,24.00
2019-04-23T12:44:22.353Z,23.90
2019-04-23T12:46:54.187Z,24.20
2019-04-23T12:51:53.799Z,24.20
2019-04-23T12:54:41.234Z,23.90
2019-04-23T12:57:09.157Z,23.70
2019-04-23T12:59:28.648Z,24.20
2019-04-23T13:02:03.603Z,24.00
2019-04-23T13:04:35.746Z,23.90
2019-04-23T13:07:11.454Z,24.00
2019-04-23T13:09:49.519Z,23.90
2019-04-23T13:12:23.647Z,23.80
2019-04-23T13:17:22.243Z,23.20
2019-04-23T13:19:49.282Z,23.50
2019-04-23T13:22:16.552Z,23.60
2019-04-23T13:25:01.846Z,23.20
2019-04-23T13:27:50.278Z,23.40
2019-04-23T13:30:19.609Z,23.70
2019-04-23T13:32:50.177Z,23.30
2019-04-23T13:35:28.107Z,22.60
2019-04-23T13:37:56.905Z,22.90
2019-04-23T13:40:27.745Z,23.50
2019-04-23T13:42:57.250Z,23.40
2019-04-23T13:45:49.665Z,23.20
2019-04-23T13:48:07.002Z,23.10
2019-04-23T13:50:37.346Z,23.70
2019-04-23T13:55:24.831Z,23.80
2019-04-23T14:02:59.247Z,23.80
2019-04-23T14:05:35.821Z,24.60
2019-04-23T14:08:13.280Z,24.80
2019-04-23T14:10:48.183Z,24.50
2019-04-23T14:13:28.508Z,23.80
2019-04-23T14:18:48.454Z,22.40
2019-04-23T14:21:11.182Z,22.10
2019-04-23T14:25:59.859Z,22.90
2019-04-23T14:28:21.662Z,22.70
2019-04-23T14:30:53.837Z,22.40
2019-04-23T14:33:26.538Z,21.90
2019-04-23T14:35:56.382Z,21.40
2019-04-23T14:38:32.161Z,21.20
2019-04-23T14:41:04.603Z,21.00
2019-04-23T14:43:25.832Z,20.70
2019-04-23T14:46:34.913Z,20.70
2019-04-23T14:56:22.660Z,21.50
2019-04-23T14:59:04.448Z,21.70
2019-04-23T15:01:35.129Z,22.20
2019-04-23T15:03:55.648Z,21.70
2019-04-23T15:11:36.364Z,22.80
2019-04-23T15:14:17.737Z,22.60
2019-04-23T15:16:39.625Z,21.90
2019-04-23T15:19:21.744Z,21.70
2019-04-23T15:21:53.712Z,21.60
2019-04-23T15:24:30.361Z,21.60
2019-04-23T15:29:02.770Z,21.00
2019-04-23T15:34:18.974Z,20.40
2019-04-23T15:39:24.454Z,20.30
2019-04-23T15:42:08.457Z,20.10
2019-04-23T15:46:56.619Z,19.80
2019-04-23T15:51:56.879Z,19.80
2019-04-23T15:54:40.394Z,19.60
2019-04-23T15:59:38.689Z,19.60
2019-04-23T16:01:41.883Z,19.70
2019-04-23T16:04:06.106Z,19.50
2019-04-23T16:06:38.529Z,19.50
2019-04-23T16:09:28.097Z,19.40
2019-04-23T16:11:58.928Z,19.40
2019-04-23T16:14:47.831Z,19.40
2019-04-23T16:17:21.199Z,19.20
2019-04-23T16:22:44.492Z,19.20
2019-04-23T16:27:46.451Z,19.20
2019-04-23T16:30:24.979Z,19.30
2019-04-23T16:33:02.617Z,19.20
2019-04-23T16:35:34.591Z,19.10
2019-04-23T16:38:18.034Z,19.10
2019-04-23T16:43:08.643Z,19.00
2019-04-23T16:45:43.123Z,18.90
2019-04-23T16:48:25.671Z,18.90
2019-04-23T16:50:54.761Z,18.80
2019-04-23T16:53:15.804Z,18.80
2019-04-23T16:55:47.586Z,18.60
2019-04-23T16:58:23.378Z,18.60
2019-04-23T17:01:00.770Z,18.50
2019-04-23T17:03:28.267Z,18.40
2019-04-23T17:05:50.618Z,18.30
2019-04-23T17:11:00.614Z,18.40
2019-04-23T17:13:21.211Z,18.50
2019-04-23T17:18:29.553Z,18.40
2019-04-23T17:23:41.782Z,18.30
2019-04-23T17:31:28.145Z,18.00
2019-04-23T17:33:43.911Z,18.00
2019-04-23T17:38:56.961Z,17.90
2019-04-23T17:41:38.730Z,17.90
2019-04-23T17:44:14.235Z,17.80
2019-04-23T17:46:34.223Z,17.80
2019-04-23T17:49:04.687Z,17.90
2019-04-23T17:51:28.096Z,17.80
2019-04-23T17:54:14.365Z,17.80
2019-04-23T17:56:45.446Z,17.70
2019-04-23T17:59:11.756Z,17.60
2019-04-23T18:02:00.419Z,17.50
2019-04-23T18:09:18.388Z,17.50
2019-04-23T18:11:44.812Z,17.60
2019-04-23T18:14:15.153Z,17.40
2019-04-23T18:17:06.348Z,17.40
2019-04-23T18:19:16.812Z,17.40
2019-04-23T18:22:31.068Z,17.30
2019-04-23T18:25:08.249Z,17.30
2019-04-23T18:27:38.442Z,17.30
2019-04-23T18:35:35.717Z,17.10
2019-04-23T19:06:55.480Z,16.60
2019-04-23T19:13:06.978Z,16.50
2019-04-23T19:20:45.162Z,16.40
2019-04-23T19:23:12.863Z,16.30
2019-04-23T19:25:31.710Z,16.30
2019-04-23T19:28:10.420Z,16.30
2019-04-23T19:33:25.402Z,16.20
2019-04-23T19:40:56.597Z,16.00
2019-04-23T19:43:25.272Z,16.00
2019-04-23T19:46:09.326Z,16.00
2019-04-23T19:48:27.010Z,15.80
2019-04-23T19:51:02.694Z,15.80
2019-04-23T19:53:43.134Z,15.70
2019-04-23T19:56:08.670Z,15.70
2019-04-23T19:58:48.418Z,15.60
2019-04-23T20:03:43.481Z,15.50
2019-04-23T20:06:15.023Z,15.50
2019-04-23T20:11:09.239Z,15.40
2019-04-23T20:13:49.350Z,15.30
2019-04-23T20:16:10.882Z,15.40
2019-04-23T20:21:03.775Z,15.20
2019-04-23T20:29:16.230Z,15.10
2019-04-23T20:33:06.478Z,15.10
2019-04-23T20:34:22.624Z,15.00
2019-04-23T20:36:46.158Z,15.10
2019-04-23T20:39:14.384Z,15.10
2019-04-23T20:42:10.993Z,15.10
2019-04-23T20:44:42.944Z,15.10
2019-04-23T20:47:05.747Z,15.10
2019-04-23T20:49:42.369Z,15.10
2019-04-23T20:54:42.252Z,15.20
2019-04-23T20:57:31.810Z,15.20
2019-04-23T21:00:02.032Z,15.20
2019-04-23T21:03:25.829Z,15.20
2019-04-23T21:05:33.138Z,15.20
2019-04-23T21:08:28.534Z,15.10
2019-04-23T21:13:16.054Z,15.10
2019-04-23T21:18:17.211Z,15.00
2019-04-23T21:20:42.725Z,14.90
2019-04-23T21:23:11.246Z,14.80
2019-04-23T21:33:30.094Z,14.60
2019-04-23T21:41:50.966Z,14.60
2019-04-23T21:51:49.328Z,14.40
2019-04-23T21:54:13.215Z,14.40
2019-04-23T21:56:47.130Z,14.30
2019-04-23T21:59:10.483Z,14.30
2019-04-23T22:01:54.285Z,14.30
2019-04-23T22:04:35.765Z,14.20
2019-04-23T22:09:30.032Z,14.10
2019-04-23T22:19:26.835Z,14.10
2019-04-23T22:21:57.536Z,14.10
2019-04-23T22:24:39.245Z,14.10
2019-04-23T22:26:57.589Z,14.10
2019-04-23T22:29:39.153Z,14.10
2019-04-23T22:31:58.247Z,14.00
2019-04-23T22:34:38.932Z,14.00
2019-04-23T22:37:11.037Z,14.00
2019-04-23T22:42:23.949Z,14.00
2019-04-23T22:45:00.576Z,14.00
2019-04-23T22:47:05.952Z,13.90
2019-04-23T22:52:21.654Z,13.90
2019-04-23T22:57:39.494Z,13.90
2019-04-23T23:00:11.278Z,13.90
2019-04-23T23:02:58.322Z,13.80
2019-04-23T23:05:35.957Z,13.80
2019-04-23T23:08:01.532Z,13.80
2019-04-23T23:10:28.431Z,13.70
2019-04-23T23:13:04.100Z,13.70
2019-04-23T23:15:32.830Z,13.70
2019-04-23T23:25:47.864Z,13.60
2019-04-23T23:28:15.181Z,13.60
2019-04-23T23:30:45.982Z,13.60
2019-04-23T23:33:13.303Z,13.60
2019-04-23T23:35:44.537Z,13.60
2019-04-23T23:38:14.366Z,13.70
2019-04-23T23:40:53.415Z,13.60
2019-04-23T23:45:57.398Z,13.50
2019-04-23T23:50:55.494Z,13.40
2019-04-23T23:55:59.831Z,13.40
2019-04-23T23:58:32.059Z,13.40
